Time;durP1;ratioP1;P1;durP2;ratioP2;P2;SDS_P1;SDS_P2;PMS_P1;PMS_P2;Temp;Humidity;BMP_temperature;BMP_pressure;BME280_temperature;BME280_humidity;BME280_pressure;Samples;Min_cycle;Max_cycle;Signal;HPM_P1;HPM_P2
2023/08/13 00:01:34;;;;;;;2.67;2.47;;;;;;;;;;5034411;28;20187;-79
2023/08/13 00:04:00;;;;;;;3.37;2.50;;;;;;;;;;4994352;28;20682;-79
2023/08/13 00:06:26;;;;;;;3.33;2.50;;;;;;;;;;5033071;28;20715;-79
2023/08/13 00:08:52;;;;;;;3.47;2.63;;;;;;;;;;5035626;28;20206;-79
2023/08/13 00:11:18;;;;;;;4.20;2.30;;;;;;;;;;5018911;28;20194;-79
2023/08/13 00:13:44;;;;;;;5.20;2.40;;;;;;;;;;5035251;28;20229;-79
2023/08/13 00:16:11;;;;;;;5.10;2.53;;;;;;;;;;5035796;28;20198;-79
2023/08/13 00:18:37;;;;;;;2.40;2.13;;;;;;;;;;4999605;28;20281;-79
2023/08/13 00:21:03;;;;;;;3.53;2.20;;;;;;;;;;5032673;28;20269;-79
2023/08/13 00:23:29;;;;;;;2.77;2.50;;;;;;;;;;5016768;28;20218;-79
2023/08/13 00:25:55;;;;;;;3.00;2.47;;;;;;;;;;5016497;28;20300;-79
2023/08/13 00:28:22;;;;;;;5.43;2.50;;;;;;;;;;5000389;28;20218;-79
2023/08/13 00:30:48;;;;;;;4.13;2.20;;;;;;;;;;4996720;28;20626;-79
2023/08/13 00:33:14;;;;;;;3.30;2.00;;;;;;;;;;5033438;28;20191;-79
2023/08/13 00:35:40;;;;;;;3.17;2.20;;;;;;;;;;5013002;28;20333;-80
2023/08/13 00:38:08;;;;;;;3.37;2.00;;;;;;;;;;4979622;28;20194;-79
2023/08/13 00:40:34;;;;;;;4.13;2.50;;;;;;;;;;4989559;23;20226;-76
2023/08/13 00:43:02;;;;;;;2.80;2.30;;;;;;;;;;4978093;28;20347;-79
2023/08/13 00:45:28;;;;;;;3.27;2.07;;;;;;;;;;4966592;28;20235;-77
2023/08/13 00:47:56;;;;;;;2.40;2.20;;;;;;;;;;4963643;28;20218;-79
2023/08/13 00:50:23;;;;;;;3.10;2.50;;;;;;;;;;4964728;28;20188;-79
2023/08/13 00:52:49;;;;;;;4.03;2.40;;;;;;;;;;4953284;28;20203;-79
2023/08/13 00:55:15;;;;;;;4.23;2.63;;;;;;;;;;4963214;28;20272;-79
2023/08/13 00:57:42;;;;;;;4.70;3.10;;;;;;;;;;4977830;28;20262;-76
2023/08/13 01:00:10;;;;;;;5.67;2.50;;;;;;;;;;4981327;28;20190;-76
2023/08/13 01:02:37;;;;;;;5.27;2.33;;;;;;;;;;4985263;28;20222;-76
2023/08/13 01:05:05;;;;;;;3.73;2.37;;;;;;;;;;4977655;28;20271;-78
2023/08/13 01:07:40;;;;;;;2.10;1.80;;;;;;;;;;4966271;28;20238;-78
2023/08/13 01:10:27;;;;;;;3.43;2.00;;;;;;;;;;4980711;28;20188;-76
2023/08/13 01:12:53;;;;;;;2.07;1.87;;;;;;;;;;4948289;28;20207;-78
2023/08/13 01:15:22;;;;;;;2.43;2.10;;;;;;;;;;4970691;28;20191;-80
2023/08/13 01:17:49;;;;;;;3.43;2.00;;;;;;;;;;4969934;28;20263;-76
2023/08/13 01:20:16;;;;;;;2.47;2.27;;;;;;;;;;4969282;28;20191;-76
2023/08/13 01:22:49;;;;;;;2.10;1.87;;;;;;;;;;4982387;28;20208;-78
2023/08/13 01:25:16;;;;;;;2.47;2.10;;;;;;;;;;4944397;28;20283;-77
2023/08/13 01:27:54;;;;;;;2.93;2.10;;;;;;;;;;4982009;28;20184;-78
2023/08/13 01:30:23;;;;;;;2.07;1.87;;;;;;;;;;4966827;28;20183;-77
2023/08/13 01:32:57;;;;;;;4.53;2.40;;;;;;;;;;4977544;28;20200;-77
2023/08/13 01:35:24;;;;;;;2.67;2.30;;;;;;;;;;4963509;28;20192;-77
2023/08/13 01:37:51;;;;;;;4.47;2.50;;;;;;;;;;4979006;28;20238;-79
2023/08/13 01:40:17;;;;;;;2.37;2.07;;;;;;;;;;4964109;28;20192;-77
2023/08/13 01:42:43;;;;;;;2.10;1.90;;;;;;;;;;4982530;28;20210;-76
2023/08/13 01:45:09;;;;;;;2.63;1.90;;;;;;;;;;4976830;28;20188;-77
2023/08/13 01:47:36;;;;;;;3.20;1.90;;;;;;;;;;4983867;28;20185;-76
2023/08/13 01:50:02;;;;;;;2.77;1.90;;;;;;;;;;4968607;28;20271;-77
2023/08/13 01:52:28;;;;;;;2.37;2.00;;;;;;;;;;4943720;28;20211;-77
2023/08/13 01:54:55;;;;;;;4.63;1.87;;;;;;;;;;4973256;28;20239;-77
2023/08/13 01:57:21;;;;;;;2.83;1.83;;;;;;;;;;4972667;28;20184;-78
2023/08/13 01:59:47;;;;;;;2.03;1.80;;;;;;;;;;4977178;28;20247;-77
2023/08/13 02:02:13;;;;;;;3.37;1.80;;;;;;;;;;4956450;28;20207;-78
2023/08/13 02:04:39;;;;;;;1.80;1.70;;;;;;;;;;4966854;28;20185;-78
2023/08/13 02:07:05;;;;;;;3.47;1.80;;;;;;;;;;4965263;28;20226;-78
2023/08/13 02:09:32;;;;;;;2.77;2.07;;;;;;;;;;4980262;28;20180;-77
2023/08/13 02:11:58;;;;;;;2.43;1.70;;;;;;;;;;4986366;28;20203;-77
2023/08/13 02:14:24;;;;;;;3.10;1.60;;;;;;;;;;4963331;28;20188;-77
2023/08/13 02:16:50;;;;;;;3.40;2.00;;;;;;;;;;4980164;28;20184;-78
2023/08/13 02:19:16;;;;;;;3.70;2.10;;;;;;;;;;4986555;28;20184;-78
2023/08/13 02:21:44;;;;;;;2.20;1.90;;;;;;;;;;4968785;28;20196;-76
2023/08/13 02:24:10;;;;;;;3.77;2.50;;;;;;;;;;4982988;28;20191;-76
2023/08/13 02:26:38;;;;;;;3.33;2.40;;;;;;;;;;4969573;28;20319;-79
2023/08/13 02:29:04;;;;;;;3.60;2.60;;;;;;;;;;4989226;28;20184;-79
2023/08/13 02:31:30;;;;;;;4.83;2.60;;;;;;;;;;4965353;28;20187;-77
2023/08/13 02:33:56;;;;;;;3.63;2.13;;;;;;;;;;4971243;28;20786;-77
2023/08/13 02:36:22;;;;;;;2.00;1.80;;;;;;;;;;4974081;28;20196;-77
2023/08/13 02:38:49;;;;;;;2.00;1.80;;;;;;;;;;4986682;28;20669;-79
2023/08/13 02:41:15;;;;;;;3.50;1.90;;;;;;;;;;4966162;28;20915;-79
2023/08/13 02:43:52;;;;;;;2.47;1.97;;;;;;;;;;4986246;28;20254;-77
2023/08/13 02:46:18;;;;;;;2.97;1.80;;;;;;;;;;4984844;28;20565;-77
2023/08/13 02:48:45;;;;;;;2.80;2.07;;;;;;;;;;4961263;28;20196;-78
2023/08/13 02:51:12;;;;;;;2.83;1.73;;;;;;;;;;4969304;28;20208;-77
2023/08/13 02:53:38;;;;;;;2.70;2.03;;;;;;;;;;4956682;28;20263;-76
2023/08/13 02:56:04;;;;;;;4.20;2.10;;;;;;;;;;4987016;28;20196;-76
2023/08/13 02:58:31;;;;;;;3.03;1.90;;;;;;;;;;4970024;28;20192;-79
2023/08/13 03:00:57;;;;;;;3.13;2.23;;;;;;;;;;4966680;28;20191;-79
2023/08/13 03:03:23;;;;;;;3.73;2.20;;;;;;;;;;4989417;28;20220;-79
2023/08/13 03:05:49;;;;;;;2.97;1.90;;;;;;;;;;4986042;28;20588;-78
2023/08/13 03:08:16;;;;;;;2.27;2.07;;;;;;;;;;4989566;28;20665;-77
2023/08/13 03:10:42;;;;;;;3.17;2.50;;;;;;;;;;4966502;28;20187;-77
2023/08/13 03:13:08;;;;;;;2.80;2.40;;;;;;;;;;4972148;28;20208;-76
2023/08/13 03:15:34;;;;;;;3.40;2.13;;;;;;;;;;4970622;28;20195;-76
2023/08/13 03:18:00;;;;;;;5.33;2.53;;;;;;;;;;4967698;28;20283;-77
2023/08/13 03:20:28;;;;;;;7.10;2.60;;;;;;;;;;4951621;28;20196;-77
2023/08/13 03:22:55;;;;;;;3.40;2.60;;;;;;;;;;4965207;28;20295;-76
2023/08/13 03:25:22;;;;;;;4.27;2.70;;;;;;;;;;4972108;28;20202;-78
2023/08/13 03:27:48;;;;;;;4.60;3.27;;;;;;;;;;4947758;28;20675;-79
2023/08/13 03:30:16;;;;;;;3.93;2.83;;;;;;;;;;4984195;28;20180;-77
2023/08/13 03:32:43;;;;;;;5.47;2.83;;;;;;;;;;4969375;28;20196;-76
2023/08/13 03:35:13;;;;;;;5.57;3.20;;;;;;;;;;4987004;28;20278;-77
2023/08/13 03:37:39;;;;;;;3.67;3.30;;;;;;;;;;4967969;28;20180;-76
2023/08/13 03:40:05;;;;;;;5.33;3.47;;;;;;;;;;4978559;28;20792;-76
2023/08/13 03:42:32;;;;;;;3.63;3.00;;;;;;;;;;4981421;28;20628;-76
2023/08/13 03:44:58;;;;;;;4.47;2.97;;;;;;;;;;4983173;28;20194;-77
2023/08/13 03:47:25;;;;;;;6.03;3.10;;;;;;;;;;4967451;28;20248;-79
2023/08/13 03:49:51;;;;;;;4.90;3.30;;;;;;;;;;4977694;28;20196;-77
2023/08/13 03:52:17;;;;;;;5.07;3.33;;;;;;;;;;4951700;28;20215;-76
2023/08/13 03:54:43;;;;;;;3.80;3.40;;;;;;;;;;4958931;28;20180;-77
2023/08/13 03:57:09;;;;;;;6.33;3.70;;;;;;;;;;4988772;28;20270;-76
2023/08/13 03:59:36;;;;;;;6.83;3.50;;;;;;;;;;4982731;28;20188;-76
2023/08/13 04:02:03;;;;;;;4.37;3.40;;;;;;;;;;4980968;28;20215;-78
2023/08/13 04:04:29;;;;;;;4.23;3.27;;;;;;;;;;4964192;28;20275;-77
2023/08/13 04:06:56;;;;;;;5.17;3.17;;;;;;;;;;4975217;28;20239;-76
2023/08/13 04:09:22;;;;;;;3.33;2.93;;;;;;;;;;4980881;28;20207;-77
2023/08/13 04:11:49;;;;;;;3.70;3.00;;;;;;;;;;4974064;28;20211;-76
2023/08/13 04:14:15;;;;;;;4.30;3.30;;;;;;;;;;4981541;28;20546;-79
2023/08/13 04:16:41;;;;;;;3.73;3.20;;;;;;;;;;4953472;28;20282;-77
2023/08/13 04:19:08;;;;;;;6.60;3.40;;;;;;;;;;4981164;28;20180;-76
2023/08/13 04:21:34;;;;;;;6.50;3.23;;;;;;;;;;4970709;28;20188;-76
2023/08/13 04:24:00;;;;;;;6.17;3.53;;;;;;;;;;4975101;28;20201;-79
2023/08/13 04:26:27;;;;;;;4.93;3.50;;;;;;;;;;4975304;28;20643;-79
2023/08/13 04:28:55;;;;;;;3.73;3.43;;;;;;;;;;4969264;28;20180;-76
2023/08/13 04:31:22;;;;;;;3.93;3.27;;;;;;;;;;4952835;28;20589;-79
2023/08/13 04:33:49;;;;;;;4.00;3.40;;;;;;;;;;4962173;28;20201;-76
2023/08/13 04:36:16;;;;;;;5.10;3.90;;;;;;;;;;4963693;28;20211;-79
2023/08/13 04:38:42;;;;;;;6.40;3.90;;;;;;;;;;4966654;28;20194;-79
2023/08/13 04:41:09;;;;;;;6.07;3.87;;;;;;;;;;4973881;28;20206;-77
2023/08/13 04:43:40;;;;;;;4.33;3.90;;;;;;;;;;4941021;28;20212;-77
2023/08/13 04:46:07;;;;;;;5.57;4.00;;;;;;;;;;4930139;28;20259;-78
2023/08/13 04:48:48;;;;;;;7.00;4.20;;;;;;;;;;4936889;28;20192;-77
2023/08/13 04:51:15;;;;;;;7.43;4.83;;;;;;;;;;4955828;28;20200;-77
2023/08/13 04:53:42;;;;;;;7.13;4.47;;;;;;;;;;4971129;28;20204;-76
2023/08/13 04:56:08;;;;;;;7.97;4.53;;;;;;;;;;4966560;28;20185;-76
2023/08/13 04:58:35;;;;;;;5.37;4.53;;;;;;;;;;4969984;28;20531;-78
2023/08/13 05:01:02;;;;;;;4.73;4.30;;;;;;;;;;4966408;28;20275;-77
2023/08/13 05:03:30;;;;;;;5.37;4.37;;;;;;;;;;4968364;28;20203;-77
2023/08/13 05:05:56;;;;;;;6.20;4.33;;;;;;;;;;4986687;28;20856;-76
2023/08/13 05:08:24;;;;;;;5.00;4.43;;;;;;;;;;4979242;28;20234;-77
2023/08/13 05:10:50;;;;;;;6.07;4.40;;;;;;;;;;4967435;28;20215;-76
2023/08/13 05:13:17;;;;;;;4.73;4.20;;;;;;;;;;4968144;28;20274;-77
2023/08/13 05:15:43;;;;;;;4.67;4.27;;;;;;;;;;4967013;28;20196;-76
2023/08/13 05:18:09;;;;;;;5.07;4.37;;;;;;;;;;4976245;28;20207;-78
2023/08/13 05:20:36;;;;;;;8.00;5.30;;;;;;;;;;4928155;28;20196;-79
2023/08/13 05:23:02;;;;;;;8.67;5.10;;;;;;;;;;4984686;28;20200;-77
2023/08/13 05:25:29;;;;;;;8.57;5.47;;;;;;;;;;4985727;28;20593;-78
2023/08/13 05:27:55;;;;;;;5.37;4.87;;;;;;;;;;4979972;28;20665;-77
2023/08/13 05:30:22;;;;;;;5.73;5.20;;;;;;;;;;4972714;28;20192;-77
2023/08/13 05:32:48;;;;;;;5.27;4.73;;;;;;;;;;4970892;28;20211;-76
2023/08/13 05:35:15;;;;;;;6.00;5.10;;;;;;;;;;4970795;28;20295;-76
2023/08/13 05:37:41;;;;;;;6.67;5.20;;;;;;;;;;4968810;28;20870;-75
2023/08/13 05:40:08;;;;;;;7.13;5.17;;;;;;;;;;4965253;28;20210;-78
2023/08/13 05:42:36;;;;;;;7.57;5.37;;;;;;;;;;4968252;28;20307;-77
2023/08/13 05:45:03;;;;;;;6.10;4.90;;;;;;;;;;4976878;28;20188;-77
2023/08/13 05:47:29;;;;;;;5.17;4.67;;;;;;;;;;4983395;28;20211;-76
2023/08/13 05:49:55;;;;;;;5.43;4.90;;;;;;;;;;4967057;28;20602;-75
2023/08/13 05:52:24;;;;;;;7.73;5.03;;;;;;;;;;4962167;28;20191;-75
2023/08/13 05:54:50;;;;;;;7.33;4.90;;;;;;;;;;4973679;28;20183;-78
2023/08/13 05:57:16;;;;;;;8.80;5.40;;;;;;;;;;4976059;28;20250;-77
2023/08/13 05:59:43;;;;;;;8.30;5.43;;;;;;;;;;4983297;28;20188;-78
2023/08/13 06:02:09;;;;;;;5.90;4.87;;;;;;;;;;4980992;28;20195;-77
2023/08/13 06:04:35;;;;;;;5.20;4.70;;;;;;;;;;4954240;28;20667;-76
2023/08/13 06:07:02;;;;;;;5.60;5.10;;;;;;;;;;4988026;28;20219;-75
2023/08/13 06:09:28;;;;;;;8.13;5.33;;;;;;;;;;4986043;28;20184;-76
2023/08/13 06:11:54;;;;;;;6.57;5.43;;;;;;;;;;4982914;28;20204;-76
2023/08/13 06:14:20;;;;;;;12.17;6.40;;;;;;;;;;4977547;28;20270;-78
2023/08/13 06:16:47;;;;;;;6.07;5.10;;;;;;;;;;4960520;28;20868;-78
2023/08/13 06:19:13;;;;;;;6.80;5.37;;;;;;;;;;4969164;28;20194;-76
2023/08/13 06:21:39;;;;;;;5.97;5.37;;;;;;;;;;4973716;28;20294;-77
2023/08/13 06:24:06;;;;;;;7.57;4.73;;;;;;;;;;4976676;28;20181;-77
2023/08/13 06:26:32;;;;;;;5.93;5.17;;;;;;;;;;4959418;28;20633;-76
2023/08/13 06:28:59;;;;;;;5.63;5.13;;;;;;;;;;4961858;28;20653;-77
2023/08/13 06:31:25;;;;;;;5.90;4.63;;;;;;;;;;4985912;28;20177;-77
2023/08/13 06:33:51;;;;;;;5.03;4.27;;;;;;;;;;4984550;28;20597;-76
2023/08/13 06:36:17;;;;;;;6.83;4.70;;;;;;;;;;4988047;28;20219;-76
2023/08/13 06:38:43;;;;;;;4.30;3.90;;;;;;;;;;4980938;28;20616;-77
2023/08/13 06:41:09;;;;;;;5.53;4.27;;;;;;;;;;5009806;23;20313;-78
2023/08/13 06:43:36;;;;;;;6.33;3.77;;;;;;;;;;5007425;28;20667;-78
2023/08/13 06:46:03;;;;;;;5.60;4.07;;;;;;;;;;5004520;28;20955;-83
2023/08/13 06:48:33;;;;;;;3.60;3.27;;;;;;;;;;5012092;28;20788;-81
2023/08/13 06:50:59;;;;;;;3.90;3.50;;;;;;;;;;5009886;28;20314;-78
2023/08/13 06:53:26;;;;;;;5.37;3.67;;;;;;;;;;5029896;28;20219;-78
2023/08/13 06:55:52;;;;;;;4.60;3.43;;;;;;;;;;5013074;28;20199;-78
2023/08/13 06:58:19;;;;;;;3.67;3.20;;;;;;;;;;4996295;28;20206;-77
2023/08/13 07:00:46;;;;;;;4.57;3.13;;;;;;;;;;5030556;28;20739;-78
2023/08/13 07:03:12;;;;;;;3.47;3.03;;;;;;;;;;5031245;28;20637;-81
2023/08/13 07:05:40;;;;;;;3.87;2.80;;;;;;;;;;4994535;28;20211;-78
2023/08/13 07:08:06;;;;;;;3.07;2.77;;;;;;;;;;5011531;28;20199;-78
2023/08/13 07:10:33;;;;;;;4.07;2.40;;;;;;;;;;5012026;28;20180;-78
2023/08/13 07:12:59;;;;;;;3.13;2.60;;;;;;;;;;5026336;28;20205;-78
2023/08/13 07:15:25;;;;;;;3.03;2.77;;;;;;;;;;5015584;28;20586;-78
2023/08/13 07:17:51;;;;;;;5.30;2.77;;;;;;;;;;4995889;28;20764;-78
2023/08/13 07:20:18;;;;;;;3.63;2.80;;;;;;;;;;4995473;28;20548;-77
2023/08/13 07:22:45;;;;;;;5.30;2.60;;;;;;;;;;4998357;28;20210;-78
2023/08/13 07:25:11;;;;;;;4.37;2.67;;;;;;;;;;4979256;28;20201;-77
2023/08/13 07:27:44;;;;;;;2.73;2.27;;;;;;;;;;5008101;28;20786;-77
2023/08/13 07:30:10;;;;;;;3.13;2.13;;;;;;;;;;4978026;28;20196;-79
2023/08/13 07:32:37;;;;;;;4.07;2.70;;;;;;;;;;4979185;28;20201;-78
2023/08/13 07:35:04;;;;;;;2.80;2.60;;;;;;;;;;4993480;28;20278;-77
2023/08/13 07:37:30;;;;;;;2.70;2.50;;;;;;;;;;4970237;28;20198;-78
2023/08/13 07:39:56;;;;;;;3.13;2.47;;;;;;;;;;4970570;28;20241;-78
2023/08/13 07:42:23;;;;;;;2.77;2.57;;;;;;;;;;4977982;28;20235;-78
2023/08/13 07:44:49;;;;;;;3.10;2.77;;;;;;;;;;4998077;28;20211;-78
2023/08/13 07:47:16;;;;;;;2.60;2.40;;;;;;;;;;4992374;28;20213;-78
2023/08/13 07:49:42;;;;;;;3.73;2.70;;;;;;;;;;4975570;28;20221;-78
2023/08/13 07:52:09;;;;;;;3.03;2.73;;;;;;;;;;4975829;28;20567;-78
2023/08/13 07:54:38;;;;;;;2.97;2.60;;;;;;;;;;4993360;28;20277;-78
2023/08/13 07:57:07;;;;;;;3.40;2.20;;;;;;;;;;5011990;28;20246;-78
2023/08/13 07:59:34;;;;;;;4.77;2.77;;;;;;;;;;5009731;28;20746;-78
2023/08/13 08:02:02;;;;;;;3.40;2.57;;;;;;;;;;4990072;28;20446;-78
2023/08/13 08:04:29;;;;;;;3.27;2.70;;;;;;;;;;4989349;28;20187;-78
2023/08/13 08:06:55;;;;;;;2.67;2.47;;;;;;;;;;5011367;28;20230;-78
2023/08/13 08:09:21;;;;;;;2.73;2.50;;;;;;;;;;5028173;28;20185;-78
2023/08/13 08:11:47;;;;;;;3.03;2.60;;;;;;;;;;4994952;28;21209;-78
2023/08/13 08:14:14;;;;;;;5.23;2.53;;;;;;;;;;4992981;28;20599;-78
2023/08/13 08:16:40;;;;;;;2.73;2.30;;;;;;;;;;4973345;28;20192;-78
2023/08/13 08:19:06;;;;;;;3.20;2.50;;;;;;;;;;4994113;28;20250;-78
2023/08/13 08:21:32;;;;;;;3.37;2.57;;;;;;;;;;4975479;28;20278;-78
2023/08/13 08:24:02;;;;;;;5.77;2.83;;;;;;;;;;4999516;28;20253;-78
2023/08/13 08:26:29;;;;;;;5.53;2.40;;;;;;;;;;4985300;28;20212;-78
2023/08/13 08:28:55;;;;;;;3.30;2.47;;;;;;;;;;4981234;28;20623;-78
2023/08/13 08:31:21;;;;;;;4.20;2.60;;;;;;;;;;4974315;28;20283;-78
2023/08/13 08:33:47;;;;;;;3.90;2.43;;;;;;;;;;4979308;28;20212;-78
2023/08/13 08:36:14;;;;;;;3.07;2.47;;;;;;;;;;4978832;28;20251;-78
2023/08/13 08:38:40;;;;;;;3.70;2.50;;;;;;;;;;4994627;28;20245;-78
2023/08/13 08:41:06;;;;;;;3.87;2.83;;;;;;;;;;4981807;28;20208;-78
2023/08/13 08:43:34;;;;;;;3.10;2.47;;;;;;;;;;4977496;28;20214;-78
2023/08/13 08:46:01;;;;;;;3.77;2.30;;;;;;;;;;4993754;28;20217;-78
2023/08/13 08:48:28;;;;;;;2.63;2.17;;;;;;;;;;5028899;28;20273;-78
2023/08/13 08:50:54;;;;;;;2.70;2.27;;;;;;;;;;5027751;28;20560;-78
2023/08/13 08:53:23;;;;;;;3.27;2.20;;;;;;;;;;5028572;28;20212;-78
2023/08/13 08:55:49;;;;;;;2.97;2.33;;;;;;;;;;5010058;28;20211;-78
2023/08/13 08:58:16;;;;;;;3.10;2.20;;;;;;;;;;4980519;28;20720;-78
2023/08/13 09:00:42;;;;;;;5.10;2.30;;;;;;;;;;4978567;28;20659;-78
2023/08/13 09:03:08;;;;;;;3.43;2.30;;;;;;;;;;4977430;28;20641;-78
2023/08/13 09:05:35;;;;;;;2.37;2.00;;;;;;;;;;4969575;28;20605;-78
2023/08/13 09:08:05;;;;;;;3.43;2.27;;;;;;;;;;4979773;28;20408;-78
2023/08/13 09:10:34;;;;;;;3.23;2.30;;;;;;;;;;4995054;28;20197;-78
2023/08/13 09:13:01;;;;;;;4.00;2.10;;;;;;;;;;4992092;28;20203;-78
2023/08/13 09:15:27;;;;;;;3.17;1.93;;;;;;;;;;4972772;28;20202;-78
2023/08/13 09:17:53;;;;;;;2.17;1.93;;;;;;;;;;5001637;28;20179;-78
2023/08/13 09:20:20;;;;;;;2.57;2.10;;;;;;;;;;4990783;28;20234;-78
2023/08/13 09:22:47;;;;;;;3.77;2.10;;;;;;;;;;4980002;28;20213;-78
2023/08/13 09:25:17;;;;;;;3.37;2.13;;;;;;;;;;4992828;28;20272;-78
2023/08/13 09:27:44;;;;;;;2.93;2.00;;;;;;;;;;4983897;28;20272;-78
2023/08/13 09:30:11;;;;;;;3.97;2.33;;;;;;;;;;5023749;28;20186;-78
2023/08/13 09:32:37;;;;;;;4.07;2.37;;;;;;;;;;5010306;28;20301;-78
2023/08/13 09:35:04;;;;;;;4.10;2.00;;;;;;;;;;5028763;28;20182;-78
2023/08/13 09:37:31;;;;;;;2.60;2.17;;;;;;;;;;5027717;28;20321;-78
2023/08/13 09:39:57;;;;;;;3.20;2.00;;;;;;;;;;4977236;28;20268;-78
2023/08/13 09:42:23;;;;;;;4.40;2.40;;;;;;;;;;4989306;28;20225;-78
2023/08/13 09:44:56;;;;;;;2.40;1.97;;;;;;;;;;4978996;28;20198;-78
2023/08/13 09:47:25;;;;;;;2.80;1.80;;;;;;;;;;4972549;28;20218;-78
2023/08/13 09:49:52;;;;;;;2.20;2.00;;;;;;;;;;4978449;28;20196;-78
2023/08/13 09:52:21;;;;;;;2.50;2.03;;;;;;;;;;4993690;28;20553;-78
2023/08/13 09:54:53;;;;;;;3.10;2.03;;;;;;;;;;4978837;28;20276;-78
2023/08/13 09:57:21;;;;;;;3.10;1.80;;;;;;;;;;4976066;28;20214;-78
2023/08/13 09:59:49;;;;;;;4.00;2.03;;;;;;;;;;4994742;28;20187;-78
2023/08/13 10:02:17;;;;;;;3.47;2.03;;;;;;;;;;4994307;28;20302;-79
2023/08/13 10:04:45;;;;;;;4.03;2.07;;;;;;;;;;4976530;28;20198;-78
2023/08/13 10:07:11;;;;;;;2.53;1.80;;;;;;;;;;4993856;28;20226;-78
2023/08/13 10:09:38;;;;;;;2.27;1.70;;;;;;;;;;4993400;28;20560;-78
2023/08/13 10:12:09;;;;;;;2.37;1.50;;;;;;;;;;5012883;28;20210;-78
2023/08/13 10:14:36;;;;;;;3.67;1.90;;;;;;;;;;5029691;28;20193;-79
2023/08/13 10:17:05;;;;;;;2.33;1.70;;;;;;;;;;5031057;28;20197;-78
2023/08/13 10:19:32;;;;;;;3.00;1.67;;;;;;;;;;5011217;28;20262;-79
2023/08/13 10:21:58;;;;;;;3.03;1.90;;;;;;;;;;5006849;28;20218;-79
2023/08/13 10:24:28;;;;;;;3.97;1.90;;;;;;;;;;5011870;28;20838;-79
2023/08/13 10:26:55;;;;;;;2.93;1.60;;;;;;;;;;4995291;28;20679;-79
2023/08/13 10:29:21;;;;;;;3.07;1.80;;;;;;;;;;5025226;28;20178;-80
2023/08/13 10:31:54;;;;;;;3.07;1.77;;;;;;;;;;5031271;28;20186;-80
2023/08/13 10:34:20;;;;;;;3.87;1.70;;;;;;;;;;4997839;28;20187;-83
2023/08/13 10:36:54;;;;;;;2.57;1.63;;;;;;;;;;5001062;28;20209;-83
2023/08/13 10:39:29;;;;;;;3.27;1.80;;;;;;;;;;5014678;28;20642;-83
2023/08/13 10:41:55;;;;;;;3.57;1.80;;;;;;;;;;4983297;28;20316;-82
2023/08/13 10:44:31;;;;;;;3.70;2.00;;;;;;;;;;4997646;28;20194;-80
2023/08/13 10:46:58;;;;;;;3.03;1.80;;;;;;;;;;5012722;28;20312;-80
2023/08/13 10:49:27;;;;;;;2.53;1.70;;;;;;;;;;5029935;28;20688;-80
2023/08/13 10:52:01;;;;;;;2.63;1.70;;;;;;;;;;4984216;28;20203;-79
2023/08/13 10:54:27;;;;;;;3.00;1.80;;;;;;;;;;4978469;28;20191;-80
2023/08/13 10:56:56;;;;;;;4.33;2.20;;;;;;;;;;5000347;28;20533;-80
2023/08/13 10:59:28;;;;;;;2.77;1.80;;;;;;;;;;4997521;28;20190;-80
2023/08/13 11:02:13;;;;;;;4.50;2.00;;;;;;;;;;4982379;28;20315;-79
2023/08/13 11:04:45;;;;;;;2.87;1.90;;;;;;;;;;5000733;28;20652;-80
2023/08/13 11:07:13;;;;;;;2.63;1.90;;;;;;;;;;4981750;28;20522;-79
2023/08/13 11:09:40;;;;;;;2.77;2.00;;;;;;;;;;4979639;28;20198;-80
2023/08/13 11:12:08;;;;;;;2.83;1.83;;;;;;;;;;4997992;28;20831;-80
2023/08/13 11:14:35;;;;;;;3.33;1.70;;;;;;;;;;4974977;28;20183;-79
2023/08/13 11:17:01;;;;;;;3.30;2.03;;;;;;;;;;4984289;28;20202;-82
2023/08/13 11:19:27;;;;;;;3.07;1.90;;;;;;;;;;4981061;28;20199;-85
2023/08/13 11:21:54;;;;;;;3.37;1.90;;;;;;;;;;5010908;28;20458;-81
2023/08/13 11:24:21;;;;;;;2.30;1.77;;;;;;;;;;4985035;28;20728;-81
2023/08/13 11:26:51;;;;;;;3.70;2.10;;;;;;;;;;5001451;28;20257;-80
2023/08/13 11:29:21;;;;;;;2.10;1.80;;;;;;;;;;4978110;28;20187;-81
2023/08/13 11:31:48;;;;;;;2.97;2.13;;;;;;;;;;4995409;28;20186;-81
2023/08/13 11:34:18;;;;;;;3.17;1.90;;;;;;;;;;4976848;28;20267;-81
2023/08/13 11:36:45;;;;;;;4.20;2.17;;;;;;;;;;4980141;28;20664;-81
2023/08/13 11:39:12;;;;;;;2.93;1.97;;;;;;;;;;4980102;28;20204;-80
2023/08/13 11:41:39;;;;;;;4.50;1.90;;;;;;;;;;4980097;28;20203;-81
2023/08/13 11:44:10;;;;;;;3.70;1.77;;;;;;;;;;4996005;28;20213;-81
2023/08/13 11:46:55;;;;;;;2.23;1.60;;;;;;;;;;4974757;28;20300;-81
2023/08/13 11:49:22;;;;;;;3.83;1.93;;;;;;;;;;4988742;28;20199;-80
2023/08/13 11:51:49;;;;;;;2.97;1.90;;;;;;;;;;4995223;28;20193;-81
2023/08/13 11:54:19;;;;;;;2.93;1.93;;;;;;;;;;4988604;28;20200;-81
2023/08/13 11:56:45;;;;;;;2.70;2.00;;;;;;;;;;4995316;28;20196;-81
2023/08/13 11:59:12;;;;;;;3.00;2.10;;;;;;;;;;5026964;28;20190;-81
2023/08/13 12:01:38;;;;;;;4.13;2.10;;;;;;;;;;4993502;28;20197;-81
2023/08/13 12:04:04;;;;;;;2.70;2.03;;;;;;;;;;5011189;28;20878;-81
2023/08/13 12:06:33;;;;;;;3.63;2.20;;;;;;;;;;5027394;28;20210;-81
2023/08/13 12:09:00;;;;;;;3.17;2.30;;;;;;;;;;5026861;28;20179;-81
2023/08/13 12:11:26;;;;;;;2.80;1.80;;;;;;;;;;5010555;28;20248;-81
2023/08/13 12:13:52;;;;;;;2.77;2.07;;;;;;;;;;5009060;28;20660;-81
2023/08/13 12:16:18;;;;;;;3.67;1.90;;;;;;;;;;5027976;28;20216;-81
2023/08/13 12:18:44;;;;;;;2.40;2.03;;;;;;;;;;5002251;28;20184;-81
2023/08/13 12:21:11;;;;;;;3.57;1.93;;;;;;;;;;4993468;28;20187;-81
2023/08/13 12:23:37;;;;;;;3.17;2.13;;;;;;;;;;5009521;28;20205;-81
2023/08/13 12:26:04;;;;;;;2.80;1.80;;;;;;;;;;5024131;28;20555;-81
2023/08/13 12:28:31;;;;;;;2.83;2.10;;;;;;;;;;5005550;28;20196;-81
2023/08/13 12:30:57;;;;;;;3.57;2.17;;;;;;;;;;5005920;28;20182;-80
2023/08/13 12:33:24;;;;;;;3.53;2.23;;;;;;;;;;4993456;28;20215;-80
2023/08/13 12:35:50;;;;;;;3.07;2.10;;;;;;;;;;4978936;28;20191;-81
2023/08/13 12:38:16;;;;;;;3.67;2.07;;;;;;;;;;4978081;28;20186;-81
2023/08/13 12:40:42;;;;;;;3.70;2.20;;;;;;;;;;4977362;28;20292;-81
2023/08/13 12:43:09;;;;;;;2.37;1.67;;;;;;;;;;4978187;28;20872;-81
2023/08/13 12:45:35;;;;;;;2.70;1.77;;;;;;;;;;4973692;28;20208;-81
2023/08/13 12:48:01;;;;;;;3.40;1.70;;;;;;;;;;4978792;28;20284;-81
2023/08/13 12:50:27;;;;;;;3.27;2.03;;;;;;;;;;4994309;28;20585;-81
2023/08/13 12:52:54;;;;;;;2.97;1.80;;;;;;;;;;4994112;28;20247;-80
2023/08/13 12:55:20;;;;;;;2.20;1.70;;;;;;;;;;4977442;28;20205;-81
2023/08/13 12:57:46;;;;;;;1.63;1.50;;;;;;;;;;4978380;28;20187;-81
2023/08/13 13:00:13;;;;;;;2.67;1.90;;;;;;;;;;4977697;28;20662;-81
2023/08/13 13:02:40;;;;;;;1.90;1.70;;;;;;;;;;5034900;23;20599;-79
2023/08/13 13:05:07;;;;;;;2.63;1.77;;;;;;;;;;5029685;28;20191;-79
2023/08/13 13:07:33;;;;;;;2.90;1.70;;;;;;;;;;5043772;28;20208;-79
2023/08/13 13:09:59;;;;;;;2.07;1.63;;;;;;;;;;5026867;28;20316;-79
2023/08/13 13:12:25;;;;;;;2.27;1.60;;;;;;;;;;5044178;28;20217;-79
2023/08/13 13:14:51;;;;;;;3.10;1.70;;;;;;;;;;5045090;28;20540;-78
2023/08/13 13:17:21;;;;;;;2.27;1.63;;;;;;;;;;5048170;28;20537;-77
2023/08/13 13:19:47;;;;;;;3.07;1.73;;;;;;;;;;5030788;28;20195;-79
2023/08/13 13:22:13;;;;;;;2.83;1.73;;;;;;;;;;5005489;28;20215;-77
2023/08/13 13:24:39;;;;;;;1.87;1.40;;;;;;;;;;5045319;28;20183;-82
2023/08/13 13:27:06;;;;;;;2.03;1.60;;;;;;;;;;4999863;28;20282;-82
2023/08/13 13:29:32;;;;;;;1.50;1.40;;;;;;;;;;5034673;28;20188;-83
2023/08/13 13:31:58;;;;;;;2.00;1.60;;;;;;;;;;5033916;28;20778;-83
2023/08/13 13:34:24;;;;;;;2.20;1.50;;;;;;;;;;5032574;28;20189;-87
2023/08/13 13:36:50;;;;;;;1.60;1.50;;;;;;;;;;5011026;28;20255;-84
2023/08/13 13:39:16;;;;;;;2.70;1.70;;;;;;;;;;5054103;28;20283;-85
2023/08/13 13:41:43;;;;;;;2.40;1.60;;;;;;;;;;5018385;28;20208;-85
2023/08/13 13:44:09;;;;;;;2.40;1.50;;;;;;;;;;4995697;28;20272;-82
2023/08/13 13:46:35;;;;;;;1.60;1.40;;;;;;;;;;5043439;28;20213;-82
2023/08/13 13:49:01;;;;;;;1.70;1.60;;;;;;;;;;5029938;28;20187;-81
2023/08/13 13:51:27;;;;;;;1.50;1.40;;;;;;;;;;5032636;28;20273;-82
2023/08/13 13:53:53;;;;;;;2.57;1.70;;;;;;;;;;5012718;28;20207;-82
2023/08/13 13:56:19;;;;;;;2.40;1.40;;;;;;;;;;5013085;28;20187;-82
2023/08/13 13:58:46;;;;;;;1.50;1.30;;;;;;;;;;5016010;28;20845;-82
2023/08/13 14:01:12;;;;;;;2.17;1.38;;;;;;;;;;5029075;28;20203;-82
2023/08/13 14:03:38;;;;;;;3.20;1.35;;;;;;;;;;5035769;28;20655;-82
2023/08/13 14:06:04;;;;;;;2.47;1.38;;;;;;;;;;5049871;28;20244;-82
2023/08/13 14:08:30;;;;;;;2.15;1.48;;;;;;;;;;4988093;28;20200;-81
2023/08/13 14:10:56;;;;;;;2.58;1.65;;;;;;;;;;5048929;28;20185;-83
2023/08/13 14:13:22;;;;;;;2.72;1.50;;;;;;;;;;5050184;28;20217;-81
2023/08/13 14:15:48;;;;;;;1.98;1.50;;;;;;;;;;5049559;28;20178;-85
2023/08/13 14:18:14;;;;;;;2.13;1.48;;;;;;;;;;5023502;28;20192;-85
2023/08/13 14:20:41;;;;;;;1.70;1.35;;;;;;;;;;5014778;28;20204;-87
2023/08/13 14:23:07;;;;;;;2.05;1.40;;;;;;;;;;5035178;28;20213;-85
2023/08/13 14:25:33;;;;;;;2.70;1.60;;;;;;;;;;5012670;28;20225;-87
2023/08/13 14:28:00;;;;;;;1.85;1.50;;;;;;;;;;5013481;28;20294;-86
2023/08/13 14:30:26;;;;;;;2.13;1.60;;;;;;;;;;5015896;28;20192;-90
2023/08/13 14:32:52;;;;;;;2.65;1.90;;;;;;;;;;4984132;28;20211;-87
2023/08/13 14:35:18;;;;;;;3.28;1.60;;;;;;;;;;4996227;28;20242;-87
2023/08/13 14:37:44;;;;;;;2.70;1.52;;;;;;;;;;5014787;28;20199;-86
2023/08/13 14:40:11;;;;;;;1.85;1.65;;;;;;;;;;5004368;28;20192;-86
2023/08/13 14:42:37;;;;;;;3.70;1.70;;;;;;;;;;4999158;28;20265;-84